METAR Data

Data at: 1254 UTC 24 May 2022

METAR for:KPVD (Providence/Green Mem, RI, US)
Text:KPVD 241251Z 04012KT 10SM CLR 14/06 A3034 RMK AO2 SLP274 T01440056
Temperature: 14.4°C ( 58°F)
Dewpoint: 5.6°C ( 42°F) [RH = 55%]
Pressure (altimeter):30.34 inches Hg (1027.5 mb) [Sea level pressure: 1027.4 mb]
Winds:from the NE (40 degrees) at 14 MPH (12 knots; 6.2 m/s)
Visibility:10 or more sm (16+ km)
Ceiling:at least 12,000 feet AGL
Clouds:sky clear below 12,000 feet AGL